Egegik Airport Egegik US
ICAO: PAII
IATA:
Category: Medium
Scheduled Services:

Elevation: 92 ft
TransAlt. 18000 ft.

Airport Communications:
ANCHORAGE CNTR:124.8
AWOS 3:135.65
CTAF:122.8

PAII Zoom In..

If Map Doesn't Load, Click Here

Runways:

(A) RW 03 length 1500 ft width 75 ft
---- / hdg 32

(B) RW 12 length 5600 ft width 100 ft
---- / hdg 122

(C) RW 21 length 1500 ft width 75 ft
---- / hdg 212

(D) RW 30 length 5600 ft width 100 ft
---- / hdg 302

Location; PAII
Day. 23 / Time. 08.56 Zulu
* Altimeter: 29.79
* Temperature: 11° c. 51.8°f.
* Wind from: 240° Speed 11 kn with Gusts up to 17 kn.
Dewpoint: 08° c.
Visibility: 10 Statute Miles.
Clouds: Few 1600 ft.
Clouds: Scattered 2700 ft.
Clouds: Overcast 4700 ft.

PAII 230856Z AUTO 24011G17KT 10SM FEW016 SCT027 OVC047 11/08 A2979 RMK AO2 SLP090 60000 T01060083 51012


Wind From 240°
Speed 11 kn.

 
 
jpsmedia.com for Web Design worldairports.se 2018   terms of use